createdAt,value
2023-01-10T00:01:55.325Z,97221.30
2023-01-10T00:04:21.810Z,97225.30
2023-01-10T00:06:48.398Z,97229.28
2023-01-10T00:09:14.944Z,97229.94
2023-01-10T00:11:41.486Z,97229.25
2023-01-10T00:14:08.121Z,97227.95
2023-01-10T00:16:34.965Z,97227.71
2023-01-10T00:19:01.514Z,97227.02
2023-01-10T00:21:28.045Z,97224.94
2023-01-10T00:23:54.443Z,97224.92
2023-01-10T00:26:20.924Z,97225.18
2023-01-10T00:28:47.361Z,97224.10
2023-01-10T00:31:13.979Z,97225.53
2023-01-10T00:33:40.544Z,97225.45
2023-01-10T00:36:08.127Z,97222.04
2023-01-10T00:38:35.978Z,97224.44
2023-01-10T00:41:03.543Z,97229.15
2023-01-10T00:43:30.086Z,97236.02
2023-01-10T00:45:57.910Z,97228.33
2023-01-10T00:48:24.905Z,97232.63
2023-01-10T00:50:51.647Z,97236.30
2023-01-10T00:53:18.192Z,97234.98
2023-01-10T00:55:45.095Z,97234.17
2023-01-10T00:58:13.948Z,97235.04
2023-01-10T01:00:41.708Z,97237.98
2023-01-10T01:03:08.640Z,97239.71
2023-01-10T01:05:41.016Z,97241.36
2023-01-10T01:08:07.534Z,97242.23
2023-01-10T01:10:34.121Z,97245.76
2023-01-10T01:13:16.632Z,97245.59
2023-01-10T01:15:43.198Z,97247.03
2023-01-10T01:18:12.778Z,97245.16
2023-01-10T01:20:41.084Z,97247.11
2023-01-10T01:23:08.018Z,97244.60
2023-01-10T01:25:34.971Z,97251.34
2023-01-10T01:28:01.370Z,97250.45
2023-01-10T01:30:27.949Z,97248.41
2023-01-10T01:32:54.382Z,97246.54
2023-01-10T01:35:21.846Z,97251.88
2023-01-10T01:37:48.305Z,97248.59
2023-01-10T01:40:19.436Z,97255.27
2023-01-10T01:42:47.397Z,97252.34
2023-01-10T01:45:13.851Z,97252.66
2023-01-10T01:48:07.430Z,97256.41
2023-01-10T01:50:48.681Z,97256.12
2023-01-10T01:53:22.775Z,97259.04
2023-01-10T01:55:52.405Z,97262.42
2023-01-10T01:58:24.906Z,97256.74
2023-01-10T02:00:51.443Z,97256.84
2023-01-10T02:03:18.602Z,97256.72
2023-01-10T02:05:45.674Z,97257.08
2023-01-10T02:08:13.915Z,97259.98
2023-01-10T02:11:05.084Z,97260.44
2023-01-10T02:13:33.644Z,97260.92
2023-01-10T02:16:01.519Z,97260.33
2023-01-10T02:18:28.107Z,97261.07
2023-01-10T02:21:06.909Z,97264.59
2023-01-10T02:23:36.564Z,97264.42
2023-01-10T02:26:18.314Z,97266.17
2023-01-10T02:28:58.888Z,97265.23
2023-01-10T02:31:57.890Z,97266.36
2023-01-10T02:34:35.302Z,97266.79
2023-01-10T02:37:27.830Z,97268.77
2023-01-10T02:40:13.729Z,97268.46
2023-01-10T02:42:50.200Z,97273.75
2023-01-10T02:45:46.133Z,97270.86
2023-01-10T02:48:12.673Z,97267.32
2023-01-10T02:50:41.980Z,97271.23
2023-01-10T02:53:37.307Z,97279.55
2023-01-10T02:56:19.956Z,97277.90
2023-01-10T02:58:54.138Z,97280.05
2023-01-10T03:01:37.428Z,97283.14
2023-01-10T03:04:22.041Z,97283.13
2023-01-10T03:07:11.749Z,97290.27
2023-01-10T03:10:03.421Z,97293.34
2023-01-10T03:12:40.029Z,97296.17
2023-01-10T03:15:09.583Z,97298.23
2023-01-10T03:17:37.966Z,97298.11
2023-01-10T03:20:06.969Z,97300.54
2023-01-10T03:22:38.168Z,97299.52
2023-01-10T03:25:08.953Z,97298.83
2023-01-10T03:28:16.236Z,97300.93
2023-01-10T03:30:52.468Z,97303.60
2023-01-10T03:33:24.588Z,97305.34
2023-01-10T03:36:18.022Z,97308.30
2023-01-10T03:39:19.281Z,97305.70
2023-01-10T03:42:02.743Z,97305.48
2023-01-10T03:44:34.989Z,97312.99
2023-01-10T03:47:16.973Z,97316.61
2023-01-10T03:49:46.538Z,97326.73
2023-01-10T03:52:16.152Z,97323.68
2023-01-10T03:54:44.852Z,97328.85
2023-01-10T03:57:23.270Z,97332.69
2023-01-10T03:59:56.114Z,97332.09
2023-01-10T04:02:22.644Z,97329.19
2023-01-10T04:04:49.209Z,97334.65
2023-01-10T04:07:15.590Z,97333.06
2023-01-10T04:09:42.055Z,97335.86
2023-01-10T04:12:08.700Z,97338.80
2023-01-10T04:14:35.142Z,97343.55
2023-01-10T04:17:01.776Z,97346.17
2023-01-10T04:19:28.354Z,97351.24
2023-01-10T04:21:54.776Z,97352.13
2023-01-10T04:24:21.512Z,97351.57
2023-01-10T04:26:48.456Z,97348.65
2023-01-10T04:29:14.996Z,97348.27
2023-01-10T04:31:41.504Z,97353.52
2023-01-10T04:34:09.406Z,97359.66
2023-01-10T04:36:36.221Z,97352.83
2023-01-10T04:39:04.032Z,97362.77
2023-01-10T04:41:30.678Z,97363.59
2023-01-10T04:43:57.163Z,97375.15
2023-01-10T04:46:23.760Z,97381.73
2023-01-10T04:48:50.502Z,97383.58
2023-01-10T04:51:17.159Z,97389.22
2023-01-10T04:53:43.563Z,97388.27
2023-01-10T04:56:17.018Z,97394.83
2023-01-10T04:58:43.482Z,97406.95
2023-01-10T05:01:23.324Z,97417.06
2023-01-10T05:03:51.434Z,97420.61
2023-01-10T05:06:19.095Z,97419.54
2023-01-10T05:08:46.401Z,97424.26
2023-01-10T05:11:13.718Z,97427.17
2023-01-10T05:13:40.526Z,97430.06
2023-01-10T05:16:07.827Z,97436.69
2023-01-10T05:18:34.691Z,97434.52
2023-01-10T05:21:06.382Z,97430.94
2023-01-10T05:23:33.517Z,97442.39
2023-01-10T05:26:14.974Z,97454.09
2023-01-10T05:28:42.078Z,97458.48
2023-01-10T05:31:11.381Z,97458.31
2023-01-10T05:33:38.511Z,97465.52
2023-01-10T05:36:06.826Z,97467.52
2023-01-10T05:38:33.830Z,97475.66
2023-01-10T05:41:00.904Z,97484.16
2023-01-10T05:43:28.580Z,97494.27
2023-01-10T05:45:55.196Z,97497.14
2023-01-10T05:48:21.959Z,97498.91
2023-01-10T05:50:50.410Z,97496.75
2023-01-10T05:53:17.882Z,97506.91
2023-01-10T05:55:45.165Z,97511.81
2023-01-10T05:58:11.728Z,97517.86
2023-01-10T06:00:38.392Z,97529.20
2023-01-10T06:03:04.877Z,97525.18
2023-01-10T06:05:31.402Z,97529.98
2023-01-10T06:07:57.942Z,97534.42
2023-01-10T06:10:26.308Z,97539.21
2023-01-10T06:12:53.583Z,97539.22
2023-01-10T06:15:20.013Z,97544.89
2023-01-10T06:17:46.573Z,97544.88
2023-01-10T06:20:13.823Z,97551.09
2023-01-10T06:22:43.749Z,97563.50
2023-01-10T06:25:11.997Z,97559.14
2023-01-10T06:27:41.323Z,97562.23
2023-01-10T06:30:09.684Z,97565.88
2023-01-10T06:32:36.869Z,97570.08
2023-01-10T06:35:04.782Z,97573.39
2023-01-10T06:37:32.102Z,97577.58
2023-01-10T06:39:58.567Z,97581.30
2023-01-10T06:42:25.389Z,97580.30
2023-01-10T06:44:51.802Z,97588.38
2023-01-10T06:47:18.426Z,97592.02
2023-01-10T06:49:44.888Z,97600.05
2023-01-10T06:52:11.426Z,97608.09
2023-01-10T06:54:38.083Z,97610.17
2023-01-10T06:57:04.701Z,97609.68
2023-01-10T06:59:31.130Z,97614.76
2023-01-10T07:01:57.656Z,97618.11
2023-01-10T07:04:24.433Z,97615.73
2023-01-10T07:06:50.981Z,97611.27
2023-01-10T07:09:17.509Z,97617.45
2023-01-10T07:11:44.476Z,97620.03
2023-01-10T07:14:10.901Z,97611.13
2023-01-10T07:16:37.402Z,97612.35
2023-01-10T07:19:03.991Z,97618.19
2023-01-10T07:21:30.531Z,97617.52
2023-01-10T07:23:57.172Z,97616.96
2023-01-10T07:26:23.923Z,97617.95
2023-01-10T07:28:51.280Z,97623.70
2023-01-10T07:31:21.635Z,97633.65
2023-01-10T07:33:48.143Z,97638.46
2023-01-10T07:36:14.666Z,97640.22
2023-01-10T07:38:41.225Z,97639.20
2023-01-10T07:41:07.880Z,97639.53
2023-01-10T07:43:35.113Z,97643.48
2023-01-10T07:46:03.619Z,97649.85
2023-01-10T07:48:31.011Z,97656.90
2023-01-10T07:50:59.539Z,97663.76
2023-01-10T07:53:28.048Z,97671.52
2023-01-10T07:55:58.605Z,97671.76
2023-01-10T07:58:25.114Z,97677.42
2023-01-10T08:00:51.696Z,97681.38
2023-01-10T08:03:18.675Z,97686.36
2023-01-10T08:05:45.351Z,97698.04
2023-01-10T08:08:13.023Z,97700.66
2023-01-10T08:10:39.968Z,97700.19
2023-01-10T08:13:17.824Z,97697.14
2023-01-10T08:15:46.574Z,97695.15
2023-01-10T08:18:13.065Z,97693.84
2023-01-10T08:20:40.591Z,97702.73
2023-01-10T08:23:07.095Z,97705.27
2023-01-10T08:25:33.543Z,97702.42
2023-01-10T08:28:00.035Z,97703.69
2023-01-10T08:30:26.522Z,97710.61
2023-01-10T08:32:53.110Z,97706.36
2023-01-10T08:35:19.508Z,97709.94
2023-01-10T08:37:46.133Z,97722.31
2023-01-10T08:40:12.904Z,97734.41
2023-01-10T08:42:39.297Z,97742.76
2023-01-10T08:45:06.388Z,97751.70
2023-01-10T08:47:35.666Z,97761.33
2023-01-10T08:50:02.309Z,97771.13
2023-01-10T08:52:28.972Z,97778.79
2023-01-10T08:54:55.510Z,97781.27
2023-01-10T08:57:22.020Z,97788.16
2023-01-10T08:59:48.593Z,97795.57
2023-01-10T09:02:15.152Z,97795.55
2023-01-10T09:04:41.742Z,97799.38
2023-01-10T09:07:08.279Z,97804.23
2023-01-10T09:09:36.353Z,97800.36
2023-01-10T09:12:02.993Z,97801.93
2023-01-10T09:14:29.440Z,97806.19
2023-01-10T09:16:55.976Z,97806.02
2023-01-10T09:19:22.421Z,97809.92
2023-01-10T09:21:48.940Z,97812.26
2023-01-10T09:24:15.488Z,97816.19
2023-01-10T09:26:42.133Z,97808.48
2023-01-10T09:29:08.821Z,97812.00
2023-01-10T09:31:35.394Z,97812.08
2023-01-10T09:34:01.884Z,97819.27
2023-01-10T09:36:28.343Z,97821.82
2023-01-10T09:39:39.169Z,97820.84
2023-01-10T09:42:50.259Z,97811.17
2023-01-10T09:45:21.808Z,97815.86
2023-01-10T09:47:53.427Z,97824.86
2023-01-10T09:50:31.268Z,97829.88
2023-01-10T09:53:03.802Z,97833.17
2023-01-10T09:55:34.188Z,97841.22
2023-01-10T09:58:07.123Z,97846.07
2023-01-10T10:01:06.241Z,97850.27
2023-01-10T10:03:41.046Z,97854.56
2023-01-10T10:06:12.700Z,97850.96
2023-01-10T10:08:45.156Z,97863.02
2023-01-10T10:11:30.328Z,97861.65
2023-01-10T10:14:15.185Z,97863.26
2023-01-10T10:17:06.427Z,97865.03
2023-01-10T10:19:59.294Z,97866.05
2023-01-10T10:22:55.010Z,97863.77
2023-01-10T10:25:53.265Z,97868.60
2023-01-10T10:28:22.393Z,97864.98
2023-01-10T10:31:06.954Z,97866.92
2023-01-10T10:33:58.587Z,97861.39
2023-01-10T10:36:31.428Z,97868.69
2023-01-10T10:39:01.410Z,97874.27
2023-01-10T10:41:42.471Z,97884.78
2023-01-10T10:44:33.733Z,97893.59
2023-01-10T10:47:01.379Z,97902.02
2023-01-10T10:49:52.999Z,97914.70
2023-01-10T10:52:26.438Z,97923.54
2023-01-10T10:54:54.719Z,97924.85
2023-01-10T10:57:28.279Z,97923.83
2023-01-10T10:59:56.564Z,97924.32
2023-01-10T11:02:31.296Z,97922.52
2023-01-10T11:05:02.918Z,97919.83
2023-01-10T11:07:35.635Z,97920.48
2023-01-10T11:10:14.018Z,97925.63
2023-01-10T11:12:45.024Z,97927.02
2023-01-10T11:15:11.600Z,97935.46
2023-01-10T11:17:38.053Z,97938.02
2023-01-10T11:20:16.523Z,97937.99
2023-01-10T11:22:49.279Z,97943.23
2023-01-10T11:25:18.036Z,97948.64
2023-01-10T11:27:58.868Z,97955.09
2023-01-10T11:30:29.229Z,97956.33
2023-01-10T11:32:57.324Z,97964.09
2023-01-10T11:35:30.734Z,97972.16
2023-01-10T11:38:05.064Z,97977.42
2023-01-10T11:40:34.168Z,97972.35
2023-01-10T11:43:20.890Z,97966.52
2023-01-10T11:45:54.878Z,97973.88
2023-01-10T11:48:47.936Z,97977.91
2023-01-10T11:51:19.937Z,97982.17
2023-01-10T11:53:47.071Z,97984.52
2023-01-10T11:56:24.525Z,97993.02
2023-01-10T11:58:51.666Z,97999.14
2023-01-10T12:01:39.929Z,98001.44
2023-01-10T12:04:06.637Z,98005.09
2023-01-10T12:06:34.209Z,98013.02
2023-01-10T12:09:00.730Z,98020.18
2023-01-10T12:11:30.849Z,98026.36
2023-01-10T12:13:59.737Z,98024.27
2023-01-10T12:16:29.301Z,98023.02
2023-01-10T12:18:59.107Z,98023.91
2023-01-10T12:21:39.656Z,98029.73
2023-01-10T12:24:27.274Z,98032.34
2023-01-10T12:26:55.301Z,98039.48
2023-01-10T12:29:30.822Z,98044.12
2023-01-10T12:31:58.797Z,98051.02
2023-01-10T12:34:41.413Z,98064.15
2023-01-10T12:37:22.163Z,98069.93
2023-01-10T12:40:02.214Z,98067.59
2023-01-10T12:42:47.390Z,98063.85
2023-01-10T12:45:23.815Z,98069.77
2023-01-10T12:48:03.217Z,98070.66
2023-01-10T12:50:41.411Z,98066.42
2023-01-10T12:53:10.962Z,98072.16
2023-01-10T12:55:46.004Z,98075.95
2023-01-10T12:58:19.788Z,98081.44
2023-01-10T13:00:51.582Z,98087.70
2023-01-10T13:03:25.186Z,98090.39
2023-01-10T13:05:51.710Z,98090.80
2023-01-10T13:08:23.207Z,98091.04
2023-01-10T13:10:50.873Z,98100.41
2023-01-10T13:13:30.180Z,98111.23
2023-01-10T13:16:15.684Z,98110.85
2023-01-10T13:19:10.913Z,98117.23
2023-01-10T13:21:39.866Z,98116.31
2023-01-10T13:24:15.362Z,98120.90
2023-01-10T13:27:03.506Z,98123.05
2023-01-10T13:29:38.200Z,98126.43
2023-01-10T13:32:21.638Z,98129.97
2023-01-10T13:34:48.356Z,98134.09
2023-01-10T13:37:22.753Z,98135.05
2023-01-10T13:39:58.160Z,98141.33
2023-01-10T13:42:34.240Z,98146.33
2023-01-10T13:45:00.764Z,98148.42
2023-01-10T13:47:39.480Z,98146.02
2023-01-10T13:50:24.129Z,98151.06
2023-01-10T13:52:52.347Z,98154.64
2023-01-10T13:55:33.778Z,98150.34
2023-01-10T13:58:09.381Z,98140.89
2023-01-10T14:00:35.912Z,98140.55
2023-01-10T14:03:02.337Z,98141.25
2023-01-10T14:05:28.809Z,98147.42
2023-01-10T14:07:56.217Z,98152.05
2023-01-10T14:10:26.220Z,98156.52
2023-01-10T14:13:02.938Z,98163.03
2023-01-10T14:15:39.212Z,98156.52
2023-01-10T14:18:16.855Z,98165.79
2023-01-10T14:20:44.445Z,98171.80
2023-01-10T14:23:22.024Z,98178.06
2023-01-10T14:25:57.119Z,98178.05
2023-01-10T14:28:33.226Z,98177.94
2023-01-10T14:31:25.504Z,98181.63
2023-01-10T14:33:53.193Z,98177.62
2023-01-10T14:36:31.395Z,98177.05
2023-01-10T14:39:01.442Z,98172.83
2023-01-10T14:41:38.601Z,98172.01
2023-01-10T14:44:27.374Z,98173.10
2023-01-10T14:46:56.639Z,98179.17
2023-01-10T14:49:33.485Z,98186.42
2023-01-10T14:52:18.636Z,98192.77
2023-01-10T14:54:46.001Z,98195.20
2023-01-10T14:57:21.523Z,98193.39
2023-01-10T14:59:49.314Z,98191.98
2023-01-10T15:02:18.334Z,98194.73
2023-01-10T15:05:15.371Z,98198.98
2023-01-10T15:07:41.908Z,98212.50
2023-01-10T15:10:17.859Z,98215.89
2023-01-10T15:12:44.635Z,98215.87
2023-01-10T15:15:19.073Z,98216.75
2023-01-10T15:17:46.251Z,98218.07
2023-01-10T15:20:19.719Z,98222.64
2023-01-10T15:22:58.422Z,98231.35
2023-01-10T15:25:34.591Z,98232.86
2023-01-10T15:28:01.224Z,98240.15
2023-01-10T15:30:31.292Z,98240.77
2023-01-10T15:33:05.058Z,98238.48
2023-01-10T15:35:36.734Z,98244.77
2023-01-10T15:38:13.902Z,98239.58
2023-01-10T15:40:41.940Z,98233.19
2023-01-10T15:43:12.565Z,98231.05
2023-01-10T15:45:39.499Z,98231.39
2023-01-10T15:48:24.448Z,98228.98
2023-01-10T15:50:58.974Z,98230.48
2023-01-10T15:53:50.527Z,98234.71
2023-01-10T15:56:26.977Z,98236.83
2023-01-10T15:58:53.746Z,98242.88
2023-01-10T16:01:20.613Z,98250.68
2023-01-10T16:03:52.376Z,98256.08
2023-01-10T16:06:25.845Z,98263.69
2023-01-10T16:08:55.282Z,98268.44
2023-01-10T16:11:46.046Z,98267.50
2023-01-10T16:14:12.582Z,98272.72
2023-01-10T16:16:39.115Z,98280.05
2023-01-10T16:19:05.980Z,98287.58
2023-01-10T16:21:40.026Z,98294.73
2023-01-10T16:24:09.439Z,98299.73
2023-01-10T16:26:37.360Z,98301.97
2023-01-10T16:29:04.209Z,98310.36
2023-01-10T16:31:30.906Z,98316.73
2023-01-10T16:33:57.383Z,98321.36
2023-01-10T16:36:24.132Z,98325.48
2023-01-10T16:38:50.551Z,98325.67
2023-01-10T16:41:17.210Z,98331.15
2023-01-10T16:43:43.755Z,98336.45
2023-01-10T16:46:10.367Z,98338.61
2023-01-10T16:48:36.843Z,98348.18
2023-01-10T16:51:18.041Z,98350.73
2023-01-10T16:53:45.262Z,98353.77
2023-01-10T16:56:15.090Z,98353.90
2023-01-10T16:58:41.926Z,98356.09
2023-01-10T17:01:15.582Z,98363.79
2023-01-10T17:03:42.692Z,98374.92
2023-01-10T17:06:11.801Z,98377.17
2023-01-10T17:08:38.537Z,98381.95
2023-01-10T17:11:07.859Z,98381.71
2023-01-10T17:13:38.366Z,98385.14
2023-01-10T17:16:05.418Z,98386.87
2023-01-10T17:18:31.971Z,98388.41
2023-01-10T17:20:58.816Z,98384.80
2023-01-10T17:23:27.115Z,98386.16
2023-01-10T17:26:05.225Z,98386.80
2023-01-10T17:28:32.059Z,98385.60
2023-01-10T17:30:58.602Z,98383.00
2023-01-10T17:33:26.811Z,98381.30
2023-01-10T17:35:55.584Z,98377.03
2023-01-10T17:38:23.231Z,98384.94
2023-01-10T17:40:50.099Z,98385.65
2023-01-10T17:43:18.050Z,98390.00
2023-01-10T17:45:47.086Z,98395.54
2023-01-10T17:48:15.899Z,98401.92
2023-01-10T17:50:43.863Z,98403.45
2023-01-10T17:53:11.070Z,98403.79
2023-01-10T17:55:44.404Z,98410.64
2023-01-10T17:58:11.025Z,98418.89
2023-01-10T18:00:37.557Z,98423.88
2023-01-10T18:03:04.127Z,98428.83
2023-01-10T18:05:30.751Z,98431.56
2023-01-10T18:07:57.151Z,98432.16
2023-01-10T18:10:23.821Z,98429.91
2023-01-10T18:12:50.455Z,98431.64
2023-01-10T18:15:16.925Z,98432.93
2023-01-10T18:17:43.573Z,98429.95
2023-01-10T18:20:10.981Z,98424.66
2023-01-10T18:22:38.650Z,98423.63
2023-01-10T18:25:05.812Z,98425.86
2023-01-10T18:27:32.228Z,98427.63
2023-01-10T18:29:58.889Z,98431.98
2023-01-10T18:32:25.838Z,98430.83
2023-01-10T18:34:52.480Z,98436.14
2023-01-10T18:37:19.118Z,98442.70
2023-01-10T18:39:45.785Z,98440.67
2023-01-10T18:42:13.323Z,98438.73
2023-01-10T18:44:40.165Z,98446.36
2023-01-10T18:47:07.534Z,98447.07
2023-01-10T18:49:34.067Z,98451.54
2023-01-10T18:52:01.018Z,98452.57
2023-01-10T18:54:27.544Z,98450.14
2023-01-10T18:56:55.233Z,98453.95
2023-01-10T18:59:22.569Z,98457.57
2023-01-10T19:01:49.363Z,98463.75
2023-01-10T19:04:15.852Z,98467.21
2023-01-10T19:06:42.262Z,98467.00
2023-01-10T19:09:08.676Z,98464.63
2023-01-10T19:11:35.125Z,98463.27
2023-01-10T19:14:01.823Z,98463.98
2023-01-10T19:16:30.646Z,98462.97
2023-01-10T19:19:00.738Z,98461.40
2023-01-10T19:21:28.604Z,98456.63
2023-01-10T19:23:55.571Z,98451.66
2023-01-10T19:26:22.711Z,98452.39
2023-01-10T19:28:50.078Z,98452.57
2023-01-10T19:31:22.037Z,98458.77
2023-01-10T19:33:49.095Z,98465.45
2023-01-10T19:36:16.737Z,98467.12
2023-01-10T19:38:43.917Z,98468.50
2023-01-10T19:41:11.303Z,98472.36
2023-01-10T19:43:38.034Z,98473.89
2023-01-10T19:46:08.632Z,98480.02
2023-01-10T19:48:36.019Z,98484.83
2023-01-10T19:51:08.275Z,98491.33
2023-01-10T19:53:39.846Z,98491.82
2023-01-10T19:56:07.212Z,98497.46
2023-01-10T19:58:34.562Z,98493.46
2023-01-10T20:01:10.150Z,98492.61
2023-01-10T20:03:36.755Z,98495.36
2023-01-10T20:06:06.932Z,98495.21
2023-01-10T20:08:33.791Z,98500.70
2023-01-10T20:11:07.324Z,98498.44
2023-01-10T20:13:36.605Z,98502.56
2023-01-10T20:16:04.601Z,98503.75
2023-01-10T20:18:31.405Z,98503.24
2023-01-10T20:20:58.616Z,98504.09
2023-01-10T20:24:09.343Z,98507.52
2023-01-10T20:27:20.479Z,98509.71
2023-01-10T20:30:31.852Z,98511.09
2023-01-10T20:33:42.856Z,98513.33
2023-01-10T20:36:53.122Z,98514.05
2023-01-10T20:40:03.714Z,98518.71
2023-01-10T20:42:36.196Z,98522.29
2023-01-10T20:45:02.676Z,98524.33
2023-01-10T20:47:29.154Z,98528.57
2023-01-10T20:49:55.552Z,98528.88
2023-01-10T20:52:22.338Z,98529.04
2023-01-10T20:54:48.775Z,98531.55
2023-01-10T20:57:15.315Z,98531.84
2023-01-10T20:59:41.963Z,98539.86
2023-01-10T21:02:10.957Z,98541.38
2023-01-10T21:04:37.566Z,98545.10
2023-01-10T21:07:04.080Z,98545.23
2023-01-10T21:09:30.573Z,98548.78
2023-01-10T21:12:07.498Z,98547.89
2023-01-10T21:14:44.133Z,98550.41
2023-01-10T21:17:11.805Z,98553.27
2023-01-10T21:19:38.285Z,98553.23
2023-01-10T21:22:04.791Z,98561.13
2023-01-10T21:24:31.217Z,98559.88
2023-01-10T21:26:57.703Z,98563.80
2023-01-10T21:29:24.194Z,98567.38
2023-01-10T21:31:52.173Z,98572.55
2023-01-10T21:34:18.915Z,98573.52
2023-01-10T21:36:45.580Z,98569.20
2023-01-10T21:39:13.045Z,98566.98
2023-01-10T21:41:39.473Z,98564.58
2023-01-10T21:44:07.591Z,98564.38
2023-01-10T21:46:34.258Z,98562.42
2023-01-10T21:49:01.617Z,98562.64
2023-01-10T21:51:28.145Z,98566.58
2023-01-10T21:53:54.717Z,98566.52
2023-01-10T21:56:21.344Z,98566.80
2023-01-10T21:58:47.779Z,98571.58
2023-01-10T22:01:15.227Z,98569.69
2023-01-10T22:03:41.702Z,98561.63
2023-01-10T22:06:08.445Z,98558.87
2023-01-10T22:08:34.845Z,98555.60
2023-01-10T22:11:01.258Z,98553.73
2023-01-10T22:13:27.759Z,98552.23
2023-01-10T22:16:01.401Z,98551.21
2023-01-10T22:18:29.758Z,98551.55
2023-01-10T22:20:57.292Z,98550.95
2023-01-10T22:23:24.609Z,98551.95
2023-01-10T22:26:09.706Z,98553.15
2023-01-10T22:28:36.191Z,98547.27
2023-01-10T22:31:03.757Z,98549.65
2023-01-10T22:33:35.827Z,98551.86
2023-01-10T22:36:07.905Z,98549.80
2023-01-10T22:38:34.423Z,98549.39
2023-01-10T22:41:09.083Z,98552.45
2023-01-10T22:43:35.591Z,98556.58
2023-01-10T22:46:02.646Z,98553.16
2023-01-10T22:48:29.513Z,98551.95
2023-01-10T22:50:56.050Z,98556.38
2023-01-10T22:53:22.570Z,98560.85
2023-01-10T22:55:49.337Z,98564.11
2023-01-10T22:58:15.785Z,98565.28
2023-01-10T23:00:42.219Z,98560.48
2023-01-10T23:03:08.753Z,98561.67
2023-01-10T23:05:35.211Z,98562.34
2023-01-10T23:08:01.783Z,98563.90
2023-01-10T23:10:30.756Z,98560.09
2023-01-10T23:12:57.970Z,98558.89
2023-01-10T23:15:25.156Z,98561.13
2023-01-10T23:17:51.675Z,98563.02
2023-01-10T23:20:18.423Z,98554.74
2023-01-10T23:22:45.065Z,98554.91
2023-01-10T23:25:11.711Z,98552.63
2023-01-10T23:27:38.449Z,98552.74
2023-01-10T23:30:07.222Z,98553.94
2023-01-10T23:32:33.996Z,98550.86
2023-01-10T23:35:00.421Z,98552.08
2023-01-10T23:37:27.071Z,98546.90
2023-01-10T23:39:53.516Z,98545.85
2023-01-10T23:42:20.039Z,98540.70
2023-01-10T23:44:46.788Z,98536.02
2023-01-10T23:47:13.424Z,98543.39
2023-01-10T23:49:39.862Z,98545.95
2023-01-10T23:52:06.493Z,98546.98
2023-01-10T23:54:33.046Z,98545.45
2023-01-10T23:56:59.523Z,98547.66
2023-01-10T23:59:26.447Z,98553.46
